Time;durP1;ratioP1;P1;durP2;ratioP2;P2;SDS_P1;SDS_P2;PMS_P1;PMS_P2;Temp;Humidity;BMP_temperature;BMP_pressure;BME280_temperature;BME280_humidity;BME280_pressure;Samples;Min_cycle;Max_cycle;Signal;HPM_P1;HPM_P2
2022/11/08 00:02:08;;;;;;;18.85;7.78;;;;;;;5.32;67.32;101062.84;1742473;80;21734;-71
2022/11/08 00:04:34;;;;;;;28.65;19.95;;;;;;;5.29;67.20;101070.81;1739305;80;21567;-71
2022/11/08 00:15:17;;;;;;;26.05;18.95;;;;;;;4.92;67.51;101079.87;1742928;80;21516;-70
2022/11/08 00:17:44;;;;;;;16.93;7.62;;;;;;;4.92;67.40;101078.56;1736927;80;21046;-69
2022/11/08 00:20:12;;;;;;;13.10;7.12;;;;;;;4.92;67.37;101079.87;1733351;80;21031;-70
2022/11/08 00:22:39;;;;;;;28.73;19.27;;;;;;;4.86;67.46;101084.08;1727632;82;21102;-70
2022/11/08 00:25:07;;;;;;;27.90;20.00;;;;;;;4.81;67.57;101086.88;1732097;80;21852;-69
2022/11/08 00:27:34;;;;;;;28.07;20.57;;;;;;;4.77;67.66;101097.51;1730704;82;21288;-70
2022/11/08 00:30:01;;;;;;;29.45;21.60;;;;;;;4.71;67.79;101097.77;1730174;82;21043;-70
2022/11/08 00:32:27;;;;;;;18.25;8.88;;;;;;;4.65;67.94;101097.13;1730840;80;21826;-70
2022/11/08 00:34:54;;;;;;;16.87;8.80;;;;;;;4.65;68.06;101094.98;1727413;80;21099;-70
2022/11/08 00:37:21;;;;;;;18.95;8.80;;;;;;;4.72;67.96;101094.26;1739629;81;21203;-70
2022/11/08 00:39:49;;;;;;;14.65;8.78;;;;;;;4.78;67.89;101096.61;1732492;82;22281;-70
2022/11/08 00:42:16;;;;;;;27.25;18.15;;;;;;;4.76;67.92;101082.33;1666107;83;21275;-69
2022/11/08 00:44:42;;;;;;;27.05;19.57;;;;;;;4.73;67.97;101074.64;1672760;84;21027;-70
2022/11/08 00:47:10;;;;;;;26.42;20.00;;;;;;;4.74;67.96;101075.48;1668881;85;21066;-69
2022/11/08 00:49:37;;;;;;;27.10;19.85;;;;;;;4.72;68.05;101083.83;1736060;80;21231;-71
2022/11/08 00:52:03;;;;;;;27.00;19.75;;;;;;;4.68;68.07;101078.38;1719753;82;21024;-71
2022/11/08 00:54:30;;;;;;;23.77;17.95;;;;;;;4.67;68.06;101082.72;1724560;80;21047;-71
2022/11/08 00:56:57;;;;;;;16.70;8.78;;;;;;;4.72;67.91;101075.55;1732417;80;21138;-71
2022/11/08 00:59:23;;;;;;;27.55;18.65;;;;;;;4.76;67.89;101073.67;1731620;80;21059;-71
2022/11/08 01:01:50;;;;;;;17.27;7.75;;;;;;;4.75;67.99;101069.36;1741282;82;21260;-71
2022/11/08 01:04:17;;;;;;;16.85;8.68;;;;;;;4.71;68.20;101069.96;1735364;82;21458;-70
2022/11/08 01:06:45;;;;;;;26.30;19.87;;;;;;;4.70;68.25;101066.11;1731838;80;21031;-70
2022/11/08 01:09:12;;;;;;;27.52;20.02;;;;;;;4.70;68.29;101057.83;1732791;80;21071;-70
2022/11/08 01:11:39;;;;;;;27.15;17.90;;;;;;;4.67;68.35;101061.87;1734280;80;21114;-70
2022/11/08 01:14:05;;;;;;;18.98;8.95;;;;;;;4.68;68.18;101060.97;1734792;80;21244;-70
2022/11/08 01:16:33;;;;;;;25.12;17.60;;;;;;;4.72;68.03;101053.85;1730457;80;21066;-70
2022/11/08 01:19:00;;;;;;;25.57;18.02;;;;;;;4.74;68.02;101032.46;1682879;80;21074;-70
2022/11/08 01:21:27;;;;;;;15.50;7.45;;;;;;;4.74;67.99;101029.85;1728486;81;21528;-72
2022/11/08 01:23:54;;;;;;;16.90;8.03;;;;;;;4.73;68.08;101033.39;1726388;80;21506;-70
2022/11/08 01:26:23;;;;;;;25.10;18.25;;;;;;;4.71;68.04;101028.69;1730232;82;21272;-70
2022/11/08 01:28:50;;;;;;;30.60;18.95;;;;;;;4.65;67.94;101026.74;1713908;81;21009;-70
2022/11/08 01:31:22;;;;;;;25.80;17.32;;;;;;;4.64;67.83;101022.46;1736144;80;21936;-70
2022/11/08 01:33:48;;;;;;;17.73;7.45;;;;;;;4.59;67.73;101028.34;1732626;81;21042;-70
2022/11/08 01:36:18;;;;;;;21.93;16.62;;;;;;;4.62;67.67;101028.64;1735936;80;21051;-69
2022/11/08 01:38:46;;;;;;;24.50;17.52;;;;;;;4.65;67.65;101026.74;1731902;81;21208;-70
2022/11/08 01:41:15;;;;;;;15.65;8.13;;;;;;;4.63;67.76;101031.66;1734055;80;21540;-70
2022/11/08 01:43:45;;;;;;;20.10;8.00;;;;;;;4.60;67.79;101039.14;1732231;80;21383;-70
2022/11/08 01:46:34;;;;;;;17.75;9.00;;;;;;;4.54;67.87;101038.13;1730259;81;21035;-70
2022/11/08 01:49:32;;;;;;;24.00;17.32;;;;;;;4.51;67.93;101051.29;1731273;80;21094;-70
2022/11/08 01:52:20;;;;;;;16.40;10.08;;;;;;;4.49;68.01;101057.47;1729893;82;21108;-70
2022/11/08 01:54:52;;;;;;;13.83;7.78;;;;;;;4.51;67.94;101056.50;1734875;80;21039;-69
2022/11/08 01:57:23;;;;;;;24.27;16.60;;;;;;;4.57;67.77;101036.69;1733026;80;21079;-70
2022/11/08 01:59:51;;;;;;;17.20;7.45;;;;;;;4.63;67.56;101033.79;1732007;80;20998;-71
2022/11/08 02:02:18;;;;;;;21.42;9.15;;;;;;;4.66;67.81;101030.22;1737286;81;21094;-70
2022/11/08 02:04:44;;;;;;;23.45;17.42;;;;;;;4.68;67.79;101034.06;1714313;80;21215;-70
2022/11/08 02:07:12;;;;;;;19.23;10.10;;;;;;;4.65;67.69;101031.95;1726180;81;21785;-71
2022/11/08 02:09:40;;;;;;;17.73;10.32;;;;;;;4.63;67.69;101033.79;1731301;80;21099;-70
2022/11/08 02:12:07;;;;;;;16.97;8.00;;;;;;;4.56;67.73;101023.26;1731909;80;21694;-71
2022/11/08 02:14:36;;;;;;;24.52;17.52;;;;;;;4.52;67.84;101017.78;1732089;81;21135;-71
2022/11/08 02:17:04;;;;;;;21.77;15.63;;;;;;;4.53;67.95;101023.39;1732709;82;21947;-71
2022/11/08 02:19:47;;;;;;;21.77;7.20;;;;;;;4.59;67.80;101023.13;1734180;80;21107;-71
2022/11/08 02:22:30;;;;;;;21.55;16.77;;;;;;;4.67;67.83;101023.23;1733370;81;20989;-71
2022/11/08 02:24:57;;;;;;;25.77;18.52;;;;;;;4.70;67.85;101035.66;1731841;82;21551;-71
2022/11/08 02:27:24;;;;;;;27.87;19.62;;;;;;;4.69;67.71;101043.55;1731895;80;21066;-70
2022/11/08 02:29:53;;;;;;;23.12;18.05;;;;;;;4.68;67.83;101041.41;1733988;81;21103;-71
2022/11/08 02:32:21;;;;;;;24.25;17.10;;;;;;;4.66;67.93;101044.55;1707814;82;21077;-71
2022/11/08 02:34:56;;;;;;;22.82;17.15;;;;;;;4.67;67.83;101040.17;1738323;80;21015;-71
2022/11/08 02:37:23;;;;;;;16.43;7.63;;;;;;;4.73;67.65;101036.00;1732737;82;21044;-71
2022/11/08 02:39:50;;;;;;;21.95;16.95;;;;;;;4.77;67.58;101028.41;1735573;80;21074;-71
2022/11/08 02:42:18;;;;;;;24.85;17.90;;;;;;;4.76;67.72;101019.76;1732804;82;21211;-70
2022/11/08 02:44:48;;;;;;;21.97;16.65;;;;;;;4.74;67.66;101028.11;1731382;80;21654;-71
2022/11/08 02:47:14;;;;;;;14.83;7.30;;;;;;;4.71;67.56;101045.19;1731985;82;21110;-71
2022/11/08 02:49:41;;;;;;;23.12;16.82;;;;;;;4.69;67.39;101043.55;1732156;80;21008;-71
2022/11/08 02:52:08;;;;;;;14.75;6.80;;;;;;;4.63;67.50;101029.05;1714382;82;21051;-71
2022/11/08 02:54:34;;;;;;;16.10;7.45;;;;;;;4.62;67.51;101034.73;1739168;80;21155;-71
2022/11/08 02:57:01;;;;;;;22.45;16.23;;;;;;;4.67;67.39;101037.11;1730080;81;21039;-71
2022/11/08 02:59:28;;;;;;;22.52;16.20;;;;;;;4.72;67.40;101023.87;1739638;80;21525;-71
2022/11/08 03:01:54;;;;;;;21.42;15.83;;;;;;;4.74;67.38;101033.77;1735414;80;21050;-71
2022/11/08 03:04:21;;;;;;;15.70;9.43;;;;;;;4.74;67.31;101032.46;1732263;82;22373;-71
2022/11/08 03:06:47;;;;;;;22.42;15.83;;;;;;;4.71;67.30;101035.20;1733344;80;21834;-71
2022/11/08 03:09:14;;;;;;;20.20;15.38;;;;;;;4.68;67.28;101025.77;1732539;82;21192;-71
2022/11/08 03:11:40;;;;;;;14.80;6.30;;;;;;;4.68;67.25;101036.67;1734758;80;21114;-70
2022/11/08 03:14:07;;;;;;;17.25;6.55;;;;;;;4.66;67.07;101021.09;1733728;80;21275;-71
2022/11/08 03:16:35;;;;;;;15.20;7.08;;;;;;;4.70;66.90;101029.15;1732796;80;21524;-71
2022/11/08 03:19:02;;;;;;;20.12;14.50;;;;;;;4.73;66.83;101024.27;1734695;80;21084;-71
2022/11/08 03:21:28;;;;;;;15.43;6.37;;;;;;;4.71;66.91;101026.08;1737831;80;21371;-71
2022/11/08 03:23:55;;;;;;;21.52;16.20;;;;;;;4.67;67.15;101017.55;1740636;80;20984;-71
2022/11/08 03:26:22;;;;;;;22.80;16.17;;;;;;;4.63;67.31;101020.76;1737919;80;21028;-71
2022/11/08 03:28:48;;;;;;;15.43;7.67;;;;;;;4.60;67.43;101023.50;1742186;80;21066;-71
2022/11/08 03:31:15;;;;;;;12.90;6.92;;;;;;;4.60;67.59;101030.02;1730088;80;21250;-71
2022/11/08 03:33:43;;;;;;;21.42;15.53;;;;;;;4.68;67.52;101026.23;1731422;82;21055;-70
2022/11/08 03:36:09;;;;;;;20.52;15.20;;;;;;;4.70;67.29;101029.15;1736119;82;21075;-70
2022/11/08 03:38:37;;;;;;;12.73;6.90;;;;;;;4.70;67.32;101024.41;1738570;80;21045;-70
2022/11/08 03:41:04;;;;;;;18.77;14.95;;;;;;;4.67;67.45;101024.53;1736967;80;21087;-71
2022/11/08 03:43:31;;;;;;;23.00;16.20;;;;;;;4.67;67.53;101029.75;1738368;80;21141;-70
2022/11/08 03:45:58;;;;;;;13.58;6.78;;;;;;;4.64;67.52;101030.28;1738593;80;21142;-71
2022/11/08 03:48:24;;;;;;;15.43;8.48;;;;;;;4.63;67.49;101031.19;1732616;82;21008;-71
2022/11/08 03:53:37;;;;;;;12.35;5.72;;;;;;;4.46;68.02;101023.28;1791982;78;22724;-64
2022/11/08 03:56:05;;;;;;;14.13;7.25;;;;;;;4.56;67.54;101033.69;1770162;79;21023;-63
2022/11/08 03:58:32;;;;;;;21.27;14.43;;;;;;;4.61;67.44;101033.48;1776366;80;21828;-64
2022/11/08 04:01:04;;;;;;;20.95;15.55;;;;;;;4.64;67.35;101035.97;1772641;80;21021;-63
2022/11/08 04:03:31;;;;;;;14.68;6.65;;;;;;;4.61;67.46;101031.72;1772028;80;21538;-64
2022/11/08 04:06:01;;;;;;;20.20;15.08;;;;;;;4.59;67.46;101030.08;1777656;80;21038;-64
2022/11/08 04:08:28;;;;;;;21.05;15.45;;;;;;;4.54;67.49;101027.70;1774167;78;21927;-63
2022/11/08 04:15:13;;;;;;;17.27;8.38;;;;;;;4.52;67.51;101028.20;1774777;80;21299;-64
2022/11/08 04:16:12;;;;;;;19.80;14.83;;;;;;;4.44;67.66;101017.30;1785700;78;21021;-62
2022/11/08 04:21:24;;;;;;;12.78;6.08;;;;;;;4.46;67.73;101025.42;1772053;79;21066;-63
2022/11/08 04:23:52;;;;;;;13.53;6.05;;;;;;;4.49;67.92;101021.84;1777397;78;21070;-62
2022/11/08 04:26:20;;;;;;;21.62;14.75;;;;;;;4.48;68.09;101024.52;1778765;78;21014;-63
2022/11/08 04:28:47;;;;;;;20.80;15.65;;;;;;;4.45;68.28;101022.45;1743454;80;21766;-63
2022/11/08 04:31:16;;;;;;;22.30;15.80;;;;;;;4.44;68.42;101029.03;1774716;80;21356;-63
2022/11/08 04:33:43;;;;;;;13.62;6.75;;;;;;;4.41;68.61;101024.78;1783586;78;21029;-62
2022/11/08 04:36:13;;;;;;;14.40;6.55;;;;;;;4.43;68.69;101025.55;1776724;80;21867;-63
2022/11/08 04:38:40;;;;;;;15.10;7.53;;;;;;;4.50;68.82;101023.98;1775197;78;21836;-62
2022/11/08 04:41:10;;;;;;;19.15;14.20;;;;;;;4.52;68.85;101019.08;1778489;80;21007;-62
2022/11/08 04:43:38;;;;;;;20.30;15.08;;;;;;;4.54;68.89;101025.53;1738107;80;21073;-63
2022/11/08 04:46:10;;;;;;;20.37;14.78;;;;;;;4.53;69.02;101024.70;1708999;83;21070;-62
2022/11/08 04:48:37;;;;;;;13.78;8.53;;;;;;;4.49;69.07;101020.55;1727780;81;21917;-63
2022/11/08 04:51:12;;;;;;;21.07;15.88;;;;;;;4.45;69.20;101013.33;1722779;82;21074;-63
2022/11/08 04:53:39;;;;;;;22.02;15.43;;;;;;;4.41;69.28;101022.64;1702401;82;21095;-63
2022/11/08 04:56:09;;;;;;;20.25;15.15;;;;;;;4.38;69.27;101013.66;1704614;84;21019;-64
2022/11/08 04:58:39;;;;;;;24.72;15.63;;;;;;;4.43;69.22;101024.72;1703545;82;21022;-63
2022/11/08 05:01:08;;;;;;;12.35;7.05;;;;;;;4.46;69.23;101017.60;1702618;83;21493;-63
2022/11/08 05:03:37;;;;;;;22.07;15.98;;;;;;;4.46;69.54;101024.59;1698223;83;21503;-63
2022/11/08 05:06:08;;;;;;;21.40;15.83;;;;;;;4.45;69.70;101027.66;1704023;82;21052;-63
2022/11/08 05:08:36;;;;;;;20.40;15.08;;;;;;;4.46;69.89;101024.59;1700240;84;21058;-65
2022/11/08 05:11:08;;;;;;;15.58;7.12;;;;;;;4.44;69.88;101023.34;1704568;84;21063;-63
2022/11/08 05:13:35;;;;;;;16.85;6.60;;;;;;;4.44;69.73;101029.03;1712647;82;21140;-63
2022/11/08 05:16:07;;;;;;;14.13;6.67;;;;;;;4.50;69.61;101030.03;1750567;81;21067;-63
2022/11/08 05:18:34;;;;;;;20.52;15.80;;;;;;;4.55;69.59;101030.67;1746352;80;21063;-64
2022/11/08 05:23:48;;;;;;;12.93;6.53;;;;;;;4.55;69.67;101025.47;1751080;80;21054;-63
2022/11/08 05:26:15;;;;;;;16.87;7.03;;;;;;;4.54;69.78;101034.66;1748658;82;21235;-63
2022/11/08 05:28:42;;;;;;;18.37;8.18;;;;;;;4.49;69.78;101043.14;1748859;80;21083;-62
2022/11/08 05:31:08;;;;;;;13.45;7.17;;;;;;;4.45;69.82;101045.91;1749852;80;21055;-63
2022/11/08 05:33:35;;;;;;;14.60;7.92;;;;;;;4.43;70.00;101046.87;1710324;82;21050;-62
2022/11/08 05:36:11;;;;;;;13.53;6.72;;;;;;;4.45;69.89;101043.73;1711238;82;20987;-63
2022/11/08 05:38:39;;;;;;;22.48;13.50;;;;;;;4.52;69.86;101039.93;1693075;82;21801;-62
2022/11/08 05:41:16;;;;;;;18.10;13.45;;;;;;;4.59;69.78;101041.81;1744901;80;21086;-63
2022/11/08 05:43:49;;;;;;;13.18;6.22;;;;;;;4.62;69.73;101036.03;1752084;80;21042;-63
2022/11/08 05:46:16;;;;;;;20.25;14.87;;;;;;;4.65;69.87;101045.45;1733736;80;21059;-63
2022/11/08 05:48:45;;;;;;;15.68;7.58;;;;;;;4.63;69.85;101044.22;1740043;82;21173;-63
2022/11/08 05:51:14;;;;;;;22.32;15.72;;;;;;;4.64;69.77;101047.70;1740343;80;21218;-64
2022/11/08 05:53:41;;;;;;;23.02;15.30;;;;;;;4.61;69.73;101043.91;1764371;79;21543;-62
2022/11/08 05:56:08;;;;;;;20.88;14.85;;;;;;;4.58;69.63;101045.34;1771288;79;21007;-62
2022/11/08 05:58:35;;;;;;;18.20;13.30;;;;;;;4.57;69.61;101045.81;1762123;79;21063;-62
2022/11/08 06:01:08;;;;;;;20.95;14.33;;;;;;;4.65;69.54;101046.76;1764899;80;21035;-63
2022/11/08 06:03:36;;;;;;;22.52;6.95;;;;;;;4.72;69.47;101043.42;1732299;82;21166;-62
2022/11/08 06:06:12;;;;;;;21.75;14.47;;;;;;;4.70;69.44;101042.19;1771959;80;21019;-59
2022/11/08 06:08:38;;;;;;;;;;;;;;;4.68;69.50;101043.19;1786092;79;21090;-62
2022/11/08 06:11:10;;;;;;;12.25;5.92;;;;;;;4.66;69.62;101043.25;1772023;80;20172;-63
2022/11/08 06:13:38;;;;;;;24.50;15.85;;;;;;;4.63;69.75;101048.13;1771305;79;21015;-62
2022/11/08 06:16:07;;;;;;;14.93;6.67;;;;;;;4.62;69.86;101049.50;1772681;80;21299;-61
2022/11/08 06:18:35;;;;;;;13.78;6.97;;;;;;;4.68;69.80;101049.70;1767809;80;21038;-62
2022/11/08 06:21:03;;;;;;;21.85;15.00;;;;;;;4.75;69.73;101048.03;1771680;80;21055;-60
2022/11/08 06:23:30;;;;;;;21.60;15.13;;;;;;;4.81;69.50;101057.36;1766109;79;21094;-63
2022/11/08 06:25:57;;;;;;;21.10;15.75;;;;;;;4.81;69.46;101063.88;1768449;79;20957;-62
2022/11/08 06:28:24;;;;;;;21.60;15.53;;;;;;;4.79;69.44;101065.25;1793710;79;21294;-64
2022/11/08 06:30:50;;;;;;;15.18;6.92;;;;;;;4.79;69.49;101072.20;1781018;79;21093;-63
2022/11/08 06:33:17;;;;;;;13.55;6.50;;;;;;;4.77;69.50;101064.92;1777789;80;20916;-61
2022/11/08 06:35:46;;;;;;;14.23;7.72;;;;;;;4.74;69.63;101058.53;1752316;80;21066;-61
2022/11/08 06:38:12;;;;;;;12.88;6.35;;;;;;;4.76;69.59;101060.64;1771986;80;21136;-62
2022/11/08 06:40:39;;;;;;;18.65;13.55;;;;;;;4.83;69.45;101056.83;1773217;80;22490;-64
2022/11/08 06:43:06;;;;;;;13.93;7.03;;;;;;;4.89;69.47;101050.01;1786252;79;21689;-61
2022/11/08 06:45:33;;;;;;;19.42;13.78;;;;;;;4.94;69.55;101037.64;1773313;80;21113;-62
2022/11/08 06:48:01;;;;;;;15.18;7.62;;;;;;;4.97;69.62;101034.02;1766382;79;21083;-61
2022/11/08 06:50:28;;;;;;;19.90;14.33;;;;;;;4.98;69.66;101038.33;1773420;80;21050;-60
2022/11/08 06:55:38;;;;;;;20.65;13.58;;;;;;;4.92;69.92;101036.00;1776176;78;22039;-62
2022/11/08 06:58:04;;;;;;;16.27;8.88;;;;;;;4.99;69.74;101039.57;1785329;78;20939;-63
2022/11/08 07:00:31;;;;;;;16.70;7.65;;;;;;;5.09;69.57;101023.48;1771253;78;21093;-62
2022/11/08 07:02:59;;;;;;;20.23;14.25;;;;;;;5.16;69.57;101030.09;1780851;80;21013;-62
2022/11/08 07:05:27;;;;;;;19.77;14.83;;;;;;;5.19;69.62;101037.78;1774694;80;21525;-62
2022/11/08 07:07:55;;;;;;;14.13;7.62;;;;;;;5.19;69.81;101046.47;1784996;78;21086;-62
2022/11/08 07:10:25;;;;;;;22.55;15.43;;;;;;;5.19;69.64;101046.91;1766288;78;21178;-62
2022/11/08 07:13:06;;;;;;;21.40;14.55;;;;;;;5.15;69.72;101043.60;1777522;78;21101;-62
2022/11/08 07:15:34;;;;;;;21.23;13.98;;;;;;;5.16;69.87;101038.78;1772366;80;20959;-62
2022/11/08 07:18:10;;;;;;;19.70;13.83;;;;;;;5.26;69.87;101045.72;1762211;80;21050;-62
2022/11/08 07:20:37;;;;;;;20.10;14.70;;;;;;;5.32;69.85;101048.02;1770099;80;21090;-62
2022/11/08 07:23:04;;;;;;;19.10;14.20;;;;;;;5.32;69.94;101050.63;1786785;78;21026;-63
2022/11/08 07:25:31;;;;;;;13.65;7.62;;;;;;;5.32;69.94;101050.63;1777159;78;21860;-62
2022/11/08 07:27:59;;;;;;;20.37;13.70;;;;;;;5.32;70.06;101049.80;1772934;78;21519;-63
2022/11/08 07:30:26;;;;;;;25.08;15.40;;;;;;;5.30;70.02;101056.39;1783856;79;21008;-62
2022/11/08 07:32:53;;;;;;;23.42;7.60;;;;;;;5.31;69.94;101050.70;1786491;78;21030;-63
2022/11/08 07:35:20;;;;;;;21.12;14.13;;;;;;;5.38;69.82;101054.73;1761338;80;21077;-62
2022/11/08 07:37:47;;;;;;;19.45;14.13;;;;;;;5.43;69.66;101047.53;1782889;78;22206;-62
2022/11/08 07:40:13;;;;;;;21.85;15.20;;;;;;;5.47;69.84;101060.80;1785592;78;21437;-63
2022/11/08 07:42:40;;;;;;;18.05;14.20;;;;;;;5.48;69.82;101063.81;1776640;78;21102;-61
2022/11/08 07:45:09;;;;;;;14.07;6.40;;;;;;;5.45;69.88;101052.68;1776852;78;22149;-62
2022/11/08 07:47:36;;;;;;;24.55;14.30;;;;;;;5.46;69.88;101054.35;1774165;78;21681;-62
2022/11/08 07:50:04;;;;;;;19.82;13.98;;;;;;;5.42;69.87;101056.27;1776526;78;21536;-62
2022/11/08 07:52:31;;;;;;;12.15;5.62;;;;;;;5.44;69.89;101060.95;1782464;79;21080;-60
2022/11/08 07:54:58;;;;;;;16.87;12.63;;;;;;;5.53;69.77;101059.66;1770295;78;21044;-60
2022/11/08 07:57:25;;;;;;;17.98;12.73;;;;;;;5.62;69.80;101055.31;1765322;79;21043;-62
2022/11/08 07:59:52;;;;;;;19.20;14.50;;;;;;;5.69;69.74;101056.69;1764734;79;21070;-62
2022/11/08 08:02:19;;;;;;;21.40;13.60;;;;;;;5.74;69.68;101057.78;1761145;79;21266;-63
2022/11/08 08:04:46;;;;;;;20.08;13.65;;;;;;;5.74;69.68;101056.48;1767035;79;21039;-63
2022/11/08 08:07:13;;;;;;;21.62;13.83;;;;;;;5.74;69.74;101044.25;1767741;79;21532;-63
2022/11/08 08:09:39;;;;;;;19.98;12.90;;;;;;;5.77;69.83;101043.27;1765899;79;21081;-63
2022/11/08 08:12:07;;;;;;;18.40;12.47;;;;;;;5.75;69.70;101052.95;1766101;79;21012;-63
2022/11/08 08:14:33;;;;;;;9.93;5.45;;;;;;;5.77;69.63;101045.41;1769046;79;21247;-64
2022/11/08 08:17:02;;;;;;;21.27;14.03;;;;;;;5.83;69.45;101050.78;1769994;79;21070;-64
2022/11/08 08:19:30;;;;;;;25.72;15.48;;;;;;;5.85;69.50;101048.97;1765578;79;21575;-63
2022/11/08 08:21:57;;;;;;;20.10;13.72;;;;;;;5.89;69.80;101052.27;1777150;79;21545;-64
2022/11/08 08:24:25;;;;;;;20.75;14.13;;;;;;;5.91;69.87;101046.03;1773374;79;20982;-65
2022/11/08 08:26:52;;;;;;;19.95;13.93;;;;;;;5.94;70.01;101049.80;1774966;79;21236;-66
2022/11/08 08:29:20;;;;;;;19.85;13.50;;;;;;;6.00;69.93;101042.61;1778688;79;20992;-64
2022/11/08 08:31:47;;;;;;;19.20;13.32;;;;;;;6.03;69.79;101043.77;1781603;79;21030;-64
2022/11/08 08:34:14;;;;;;;14.80;7.40;;;;;;;6.12;69.52;101033.70;1776229;79;21352;-64
2022/11/08 08:36:41;;;;;;;20.60;14.10;;;;;;;6.18;69.40;101045.59;1772744;79;21122;-64
2022/11/08 08:39:08;;;;;;;23.15;13.95;;;;;;;6.18;69.37;101039.06;1767357;79;21652;-64
2022/11/08 08:41:35;;;;;;;26.33;15.32;;;;;;;6.19;69.51;101038.62;1767923;79;22323;-64
2022/11/08 08:44:03;;;;;;;21.68;14.85;;;;;;;6.19;69.61;101035.53;1769930;79;20988;-64
2022/11/08 08:46:30;;;;;;;25.43;14.65;;;;;;;6.20;69.58;101032.45;1769000;79;22298;-63
2022/11/08 08:48:57;;;;;;;21.02;14.43;;;;;;;6.25;69.79;101038.28;1772205;79;21319;-64
2022/11/08 08:51:23;;;;;;;22.17;14.55;;;;;;;6.34;69.54;101037.83;1771518;79;22222;-64
2022/11/08 08:53:51;;;;;;;19.67;14.38;;;;;;;6.40;69.55;101040.09;1763709;79;21074;-65
2022/11/08 08:56:18;;;;;;;21.07;15.45;;;;;;;6.45;69.64;101043.79;1781118;80;21039;-64
2022/11/08 08:58:46;;;;;;;23.80;15.70;;;;;;;6.47;69.54;101038.88;1778907;80;21039;-63
2022/11/08 09:01:14;;;;;;;23.27;15.75;;;;;;;6.47;69.51;101036.70;1781075;80;21032;-64
2022/11/08 09:03:41;;;;;;;15.48;6.97;;;;;;;6.36;69.90;101034.66;1780215;78;21225;-63
2022/11/08 09:06:07;;;;;;;21.40;14.33;;;;;;;6.46;69.69;101038.95;1771516;79;21062;-64
2022/11/08 09:08:34;;;;;;;20.80;14.93;;;;;;;6.44;69.83;101034.25;1777077;78;21038;-64
2022/11/08 09:11:00;;;;;;;27.62;16.62;;;;;;;6.55;69.69;101036.31;1767271;79;21016;-63
2022/11/08 09:13:29;;;;;;;20.37;15.50;;;;;;;6.57;69.64;101038.38;1774410;78;21516;-63
2022/11/08 09:16:00;;;;;;;23.40;15.48;;;;;;;6.60;69.60;101030.37;1779803;80;21062;-63
2022/11/08 09:18:26;;;;;;;26.00;16.45;;;;;;;6.55;69.80;101029.30;1778384;78;20989;-64
2022/11/08 09:20:57;;;;;;;25.88;15.08;;;;;;;6.56;70.00;101031.48;1777260;79;21500;-64
2022/11/08 09:23:24;;;;;;;23.05;15.63;;;;;;;6.60;70.01;101029.07;1780745;79;21500;-65
2022/11/08 09:25:57;;;;;;;22.13;15.15;;;;;;;6.69;69.88;101028.12;1779354;79;21047;-64
2022/11/08 09:28:24;;;;;;;20.20;14.35;;;;;;;6.75;69.71;101032.64;1780749;78;21257;-64
2022/11/08 09:30:51;;;;;;;26.25;15.70;;;;;;;6.76;69.88;101031.70;1777884;79;22288;-64
2022/11/08 09:33:17;;;;;;;22.37;15.63;;;;;;;6.77;69.89;101036.84;1775619;78;21788;-64
2022/11/08 09:35:46;;;;;;;22.65;15.63;;;;;;;6.75;69.89;101036.09;1772380;78;21101;-64
2022/11/08 09:38:13;;;;;;;20.25;15.40;;;;;;;6.71;70.01;101029.35;1774085;78;21082;-64
2022/11/08 09:40:48;;;;;;;27.48;15.05;;;;;;;6.73;70.10;101036.64;1768346;78;20992;-64
2022/11/08 09:43:23;;;;;;;22.15;14.65;;;;;;;6.82;70.11;101029.59;1774032;78;20997;-65
2022/11/08 09:45:52;;;;;;;23.55;15.10;;;;;;;6.92;70.05;101029.11;1786940;78;21026;-64
2022/11/08 09:48:38;;;;;;;33.92;18.07;;;;;;;7.00;70.15;101032.16;1770757;79;21023;-64
2022/11/08 09:51:15;;;;;;;17.73;7.97;;;;;;;7.03;70.21;101027.59;1770361;79;21682;-64
2022/11/08 09:53:53;;;;;;;27.37;17.27;;;;;;;7.05;70.19;101024.90;1734473;81;21889;-64
2022/11/08 09:56:31;;;;;;;13.78;9.18;;;;;;;7.04;70.21;101028.44;1715380;82;21062;-64
2022/11/08 09:59:29;;;;;;;25.27;15.38;;;;;;;7.00;70.34;101024.31;1721332;82;21373;-63
2022/11/08 10:01:56;;;;;;;24.92;16.02;;;;;;;6.96;70.57;101018.41;1726866;81;21102;-63
2022/11/08 10:04:25;;;;;;;24.47;16.45;;;;;;;7.05;70.58;101023.11;1729632;81;21020;-64
2022/11/08 10:10:38;;;;;;;25.50;16.52;;;;;;;6.96;71.85;101022.33;1798532;78;22693;-62
2022/11/08 10:13:31;;;;;;;22.75;15.35;;;;;;;7.09;71.49;101023.79;1776695;80;20984;-63
2022/11/08 10:16:43;;;;;;;27.93;15.58;;;;;;;7.10;71.88;101020.73;1781438;78;21198;-63
2022/11/08 10:19:36;;;;;;;23.30;15.58;;;;;;;7.17;72.01;101019.45;1780481;80;21682;-63
2022/11/08 10:22:19;;;;;;;26.07;15.65;;;;;;;7.25;72.02;101022.02;1780171;78;21054;-62
2022/11/08 10:24:57;;;;;;;28.98;16.32;;;;;;;7.31;72.17;101016.05;1731526;80;21096;-63
2022/11/08 10:27:39;;;;;;;29.45;18.05;;;;;;;7.31;72.40;101012.12;1710796;83;21006;-64
2022/11/08 10:30:17;;;;;;;28.50;16.00;;;;;;;7.33;72.61;101009.81;1716744;83;21269;-63
2022/11/08 10:32:43;;;;;;;29.48;16.90;;;;;;;7.41;72.76;101010.67;1711644;83;21106;-64
2022/11/08 10:35:16;;;;;;;23.07;16.25;;;;;;;7.51;72.70;101003.98;1711986;83;21066;-64
2022/11/08 10:37:43;;;;;;;26.75;17.10;;;;;;;7.59;72.71;101014.86;1724873;81;21056;-64
2022/11/08 10:40:42;;;;;;;23.20;16.93;;;;;;;7.63;72.83;101014.21;1723550;81;21539;-64
2022/11/08 10:43:12;;;;;;;26.97;16.95;;;;;;;7.68;72.97;101013.95;1686829;83;21115;-64
2022/11/08 10:45:39;;;;;;;28.15;16.37;;;;;;;7.71;72.80;101009.86;1682976;83;21038;-64
2022/11/08 10:48:05;;;;;;;27.65;16.57;;;;;;;7.74;72.54;101013.61;1724739;82;21060;-64
2022/11/08 10:50:45;;;;;;;25.88;15.08;;;;;;;7.81;72.36;101010.52;1723401;81;21535;-64
2022/11/08 10:53:24;;;;;;;31.48;16.65;;;;;;;7.89;72.21;101013.19;1724761;82;21046;-64
2022/11/08 10:56:00;;;;;;;22.30;16.77;;;;;;;7.92;72.06;101017.78;1736706;81;21846;-63
2022/11/08 10:58:40;;;;;;;25.75;17.07;;;;;;;7.91;72.22;101020.01;1746024;81;21144;-64
2022/11/08 11:01:17;;;;;;;27.17;17.50;;;;;;;7.90;72.27;101013.55;1716524;83;21162;-64
2022/11/08 11:03:45;;;;;;;32.65;18.12;;;;;;;7.90;72.43;101017.47;1710613;83;21471;-64
2022/11/08 11:06:29;;;;;;;27.93;16.87;;;;;;;7.95;72.46;101013.67;1706863;81;21026;-64
2022/11/08 11:09:02;;;;;;;32.30;18.40;;;;;;;8.05;72.21;101009.17;1722547;81;21162;-63
2022/11/08 11:11:36;;;;;;;32.50;17.87;;;;;;;8.11;72.11;101013.59;1699634;83;21043;-64
2022/11/08 11:14:18;;;;;;;25.50;17.50;;;;;;;8.15;72.20;101008.55;1717355;81;21035;-63
2022/11/08 11:17:07;;;;;;;36.77;19.67;;;;;;;8.17;72.21;101011.09;1705144;82;21145;-64
2022/11/08 11:19:35;;;;;;;30.72;17.52;;;;;;;8.24;72.36;101016.78;1734273;82;21067;-64
2022/11/08 11:22:05;;;;;;;34.92;18.55;;;;;;;8.33;72.24;101009.20;1733690;82;21218;-63
2022/11/08 11:24:36;;;;;;;31.42;17.80;;;;;;;8.41;71.86;101011.85;1735181;82;22215;-64
2022/11/08 11:27:06;;;;;;;31.97;19.95;;;;;;;8.48;71.88;101011.40;1725404;82;21597;-63
2022/11/08 11:29:37;;;;;;;31.05;19.45;;;;;;;8.50;71.88;101008.69;1733264;82;21097;-63
2022/11/08 11:32:27;;;;;;;30.82;19.15;;;;;;;8.52;71.80;101016.84;1739980;82;22260;-63
2022/11/08 11:34:55;;;;;;;28.12;18.82;;;;;;;8.49;71.75;101013.55;1732921;82;21869;-63
2022/11/08 11:37:42;;;;;;;26.80;18.02;;;;;;;8.49;71.73;101017.03;1734652;80;21055;-64
2022/11/08 11:40:41;;;;;;;29.65;20.40;;;;;;;8.58;71.68;101009.06;1734033;80;21150;-63
2022/11/08 11:43:33;;;;;;;30.27;18.87;;;;;;;8.66;71.82;101013.84;1702612;81;21054;-63
2022/11/08 11:46:27;;;;;;;30.80;19.50;;;;;;;8.72;71.89;101020.00;1727479;82;21634;-63
2022/11/08 11:49:00;;;;;;;32.95;20.00;;;;;;;8.73;71.83;101019.91;1710942;83;21952;-63
2022/11/08 11:51:28;;;;;;;33.38;20.05;;;;;;;8.74;71.74;101032.11;1703841;82;21059;-63
2022/11/08 11:53:56;;;;;;;32.23;20.32;;;;;;;8.79;71.58;101040.14;1710960;83;21075;-63
2022/11/08 11:56:52;;;;;;;36.33;21.07;;;;;;;8.83;71.27;101037.72;1717967;82;21138;-63
2022/11/08 11:59:41;;;;;;;33.23;21.00;;;;;;;8.85;71.38;101048.96;1712177;82;21570;-61